createdAt,value
2023-11-30T00:00:58.067Z,8.95
2023-11-30T00:03:25.612Z,9.23
2023-11-30T00:05:53.279Z,9.02
2023-11-30T00:08:20.664Z,9.88
2023-11-30T00:10:48.047Z,9.18
2023-11-30T00:13:15.463Z,11.15
2023-11-30T00:15:47.138Z,8.07
2023-11-30T00:18:15.508Z,9.27
2023-11-30T00:20:43.026Z,9.80
2023-11-30T00:23:10.420Z,7.78
2023-11-30T00:25:37.824Z,7.55
2023-11-30T00:28:05.469Z,9.02
2023-11-30T00:30:32.940Z,7.13
2023-11-30T00:33:01.825Z,9.38
2023-11-30T00:35:29.303Z,11.97
2023-11-30T00:37:56.734Z,8.75
2023-11-30T00:40:24.380Z,11.38
2023-11-30T00:42:51.863Z,9.68
2023-11-30T00:45:21.493Z,8.88
2023-11-30T00:47:49.044Z,12.73
2023-11-30T00:50:17.945Z,8.40
2023-11-30T00:52:45.339Z,10.07
2023-11-30T00:55:12.839Z,9.10
2023-11-30T00:57:40.341Z,8.55
2023-11-30T01:00:09.976Z,9.52
2023-11-30T01:02:37.502Z,11.00
2023-11-30T01:05:05.208Z,9.80
2023-11-30T01:07:34.652Z,8.68
2023-11-30T01:10:02.068Z,8.27
2023-11-30T01:12:29.493Z,10.82
2023-11-30T01:14:57.557Z,7.57
2023-11-30T01:17:25.059Z,9.88
2023-11-30T01:19:52.591Z,11.07
2023-11-30T01:22:20.018Z,10.23
2023-11-30T01:24:48.759Z,12.05
2023-11-30T01:27:17.257Z,9.07
2023-11-30T01:29:44.894Z,8.80
2023-11-30T01:32:12.323Z,9.77
2023-11-30T01:34:40.240Z,10.60
2023-11-30T01:37:07.751Z,11.07
2023-11-30T01:39:35.204Z,10.82
2023-11-30T01:42:05.798Z,11.07
2023-11-30T01:44:33.573Z,9.07
2023-11-30T01:47:10.310Z,8.85
2023-11-30T01:49:37.789Z,11.35
2023-11-30T01:52:05.546Z,11.77
2023-11-30T01:54:33.059Z,11.55
2023-11-30T01:57:00.877Z,11.35
2023-11-30T01:59:29.900Z,11.90
2023-11-30T02:01:56.697Z,12.77
2023-11-30T02:04:24.257Z,15.23
2023-11-30T02:06:51.672Z,11.07
2023-11-30T02:09:19.160Z,11.25
2023-11-30T02:11:46.738Z,10.50
2023-11-30T02:14:14.175Z,12.82
2023-11-30T02:16:42.933Z,12.32
2023-11-30T02:19:10.636Z,9.18
2023-11-30T02:21:38.085Z,7.57
2023-11-30T02:24:08.278Z,8.48
2023-11-30T02:26:35.931Z,8.68
2023-11-30T02:29:03.393Z,8.23
2023-11-30T02:31:30.931Z,9.57
2023-11-30T02:33:58.411Z,8.68
2023-11-30T02:36:25.812Z,9.88
2023-11-30T02:38:53.461Z,8.73
2023-11-30T02:41:22.323Z,11.48
2023-11-30T02:43:49.815Z,8.37
2023-11-30T02:46:17.250Z,9.75
2023-11-30T02:48:44.716Z,8.95
2023-11-30T02:51:12.359Z,8.82
2023-11-30T02:53:39.852Z,9.45
2023-11-30T02:56:07.588Z,8.45
2023-11-30T02:58:36.355Z,9.73
2023-11-30T03:01:03.930Z,9.38
2023-11-30T03:03:31.474Z,10.77
2023-11-30T03:05:59.133Z,9.45
2023-11-30T03:08:26.630Z,10.18
2023-11-30T03:10:54.056Z,12.45
2023-11-30T03:13:21.555Z,11.82
2023-11-30T03:15:50.327Z,10.48
2023-11-30T03:18:17.804Z,14.10
2023-11-30T03:20:45.393Z,9.80
2023-11-30T03:23:11.835Z,9.70
2023-11-30T03:25:41.174Z,9.32
2023-11-30T03:28:08.724Z,11.88
2023-11-30T03:30:36.438Z,12.57
2023-11-30T03:33:05.382Z,13.68
2023-11-30T03:35:32.894Z,13.80
2023-11-30T03:38:00.344Z,8.63
2023-11-30T03:40:27.763Z,10.27
2023-11-30T03:42:58.039Z,12.80
2023-11-30T03:45:25.516Z,8.02
2023-11-30T03:47:52.999Z,7.32
2023-11-30T03:50:21.805Z,9.27
2023-11-30T03:52:49.265Z,10.50
2023-11-30T03:55:16.773Z,8.82
2023-11-30T03:57:44.208Z,8.75
2023-11-30T04:00:14.233Z,11.63
2023-11-30T04:02:41.880Z,11.55
2023-11-30T04:05:10.278Z,11.02
2023-11-30T04:07:40.371Z,13.55
2023-11-30T04:10:08.484Z,10.13
2023-11-30T04:12:36.675Z,10.32
2023-11-30T04:15:04.583Z,8.07
2023-11-30T04:17:32.500Z,10.68
2023-11-30T04:19:59.935Z,9.52
2023-11-30T04:22:27.329Z,7.30
2023-11-30T04:24:56.095Z,8.60
2023-11-30T04:27:23.535Z,8.52
2023-11-30T04:29:50.929Z,6.35
2023-11-30T04:32:18.320Z,7.10
2023-11-30T04:34:45.679Z,7.25
2023-11-30T04:37:13.147Z,7.22
2023-11-30T04:39:40.540Z,8.95
2023-11-30T04:42:09.533Z,9.38
2023-11-30T04:44:36.947Z,7.82
2023-11-30T04:47:10.278Z,10.52
2023-11-30T04:49:37.745Z,14.13
2023-11-30T04:52:05.409Z,15.82
2023-11-30T04:54:33.738Z,20.42
2023-11-30T04:57:01.771Z,14.32
2023-11-30T04:59:31.230Z,24.35
2023-11-30T05:01:58.733Z,19.10
2023-11-30T05:04:26.254Z,17.90
2023-11-30T05:06:53.663Z,13.07
2023-11-30T05:09:20.201Z,20.85
2023-11-30T05:11:47.792Z,22.35
2023-11-30T05:14:15.227Z,21.15
2023-11-30T05:16:44.256Z,19.35
2023-11-30T05:19:11.623Z,23.30
2023-11-30T05:21:39.067Z,18.40
2023-11-30T05:24:06.651Z,16.55
2023-11-30T05:26:34.046Z,18.23
2023-11-30T05:29:01.453Z,25.20
2023-11-30T05:31:28.880Z,25.13
2023-11-30T05:33:57.668Z,30.35
2023-11-30T05:36:25.232Z,21.10
2023-11-30T05:38:52.819Z,16.40
2023-11-30T05:41:20.298Z,103.00
2023-11-30T05:43:47.754Z,26.15
2023-11-30T05:46:15.183Z,31.20
2023-11-30T05:48:42.626Z,31.45
2023-11-30T05:51:11.507Z,26.50
2023-11-30T05:53:38.960Z,15.65
2023-11-30T05:56:07.049Z,18.17
2023-11-30T05:58:34.530Z,16.40
2023-11-30T06:01:02.829Z,20.27
2023-11-30T06:03:30.474Z,17.52
2023-11-30T06:05:58.070Z,16.23
2023-11-30T06:08:27.041Z,21.70
2023-11-30T06:10:54.800Z,13.90
2023-11-30T06:13:25.225Z,14.43
2023-11-30T06:15:53.685Z,14.50
2023-11-30T06:18:21.476Z,9.63
2023-11-30T06:20:49.023Z,10.32
2023-11-30T06:23:16.499Z,10.75
2023-11-30T06:25:45.371Z,13.93
2023-11-30T06:28:12.801Z,9.63
2023-11-30T06:30:40.238Z,11.13
2023-11-30T06:33:07.935Z,14.07
2023-11-30T06:35:35.356Z,10.52
2023-11-30T06:38:03.165Z,14.00
2023-11-30T06:40:30.875Z,13.73
2023-11-30T06:42:59.767Z,11.95
2023-11-30T06:45:27.713Z,12.93
2023-11-30T06:47:55.114Z,11.95
2023-11-30T06:50:22.828Z,11.00
2023-11-30T06:52:50.315Z,10.93
2023-11-30T06:55:17.684Z,10.95
2023-11-30T06:57:45.101Z,10.90
2023-11-30T07:00:14.701Z,11.18
2023-11-30T07:02:42.247Z,14.20
2023-11-30T07:05:09.953Z,11.75
2023-11-30T07:07:37.739Z,11.93
2023-11-30T07:10:05.615Z,14.63
2023-11-30T07:12:33.211Z,10.55
2023-11-30T07:15:00.896Z,10.50
2023-11-30T07:17:29.719Z,13.43
2023-11-30T07:19:57.146Z,15.13
2023-11-30T07:22:26.045Z,15.27
2023-11-30T07:24:53.772Z,17.00
2023-11-30T07:27:21.948Z,15.52
2023-11-30T07:29:49.586Z,15.45
2023-11-30T07:32:17.693Z,16.48
2023-11-30T07:34:46.671Z,18.08
2023-11-30T07:37:16.249Z,15.48
2023-11-30T07:39:43.654Z,17.58
2023-11-30T07:42:11.335Z,18.77
2023-11-30T07:44:38.855Z,13.77
2023-11-30T07:47:06.496Z,16.92
2023-11-30T07:49:33.901Z,17.70
2023-11-30T07:52:02.627Z,16.02
2023-11-30T07:54:30.395Z,15.38
2023-11-30T07:56:57.908Z,17.70
2023-11-30T07:59:25.245Z,20.55
2023-11-30T08:01:52.661Z,18.45
2023-11-30T08:04:20.116Z,13.85
2023-11-30T08:06:48.092Z,15.30
2023-11-30T08:09:17.933Z,15.27
2023-11-30T08:14:13.234Z,19.40
2023-11-30T08:16:42.016Z,16.10
2023-11-30T08:19:09.747Z,18.57
2023-11-30T08:21:41.539Z,16.58
2023-11-30T08:24:09.695Z,16.38
2023-11-30T08:26:38.503Z,15.63
2023-11-30T08:29:05.883Z,16.38
2023-11-30T08:31:34.769Z,16.63
2023-11-30T08:34:02.386Z,20.37
2023-11-30T08:36:29.889Z,18.60
2023-11-30T08:38:57.311Z,19.65
2023-11-30T08:41:24.722Z,20.73
2023-11-30T08:43:53.779Z,19.95
2023-11-30T08:46:21.374Z,20.42
2023-11-30T08:48:49.036Z,17.90
2023-11-30T08:51:16.687Z,16.75
2023-11-30T08:53:44.118Z,21.15
2023-11-30T08:56:11.984Z,18.67
2023-11-30T08:58:39.345Z,16.55
2023-11-30T09:01:08.718Z,17.45
2023-11-30T09:03:36.227Z,16.85
2023-11-30T09:06:04.112Z,21.63
2023-11-30T09:08:31.549Z,28.95
2023-11-30T09:10:59.011Z,24.02
2023-11-30T09:13:26.386Z,29.10
2023-11-30T09:15:53.875Z,32.65
2023-11-30T09:18:23.161Z,30.52
2023-11-30T09:20:51.520Z,32.78
2023-11-30T09:23:19.002Z,23.20
2023-11-30T09:25:46.386Z,28.63
2023-11-30T09:28:13.911Z,26.60
2023-11-30T09:30:41.566Z,25.60
2023-11-30T09:33:09.739Z,27.75
2023-11-30T09:35:38.637Z,28.63
2023-11-30T09:38:06.104Z,26.15
2023-11-30T09:40:35.367Z,23.98
2023-11-30T09:43:02.919Z,27.25
2023-11-30T09:45:30.548Z,26.02
2023-11-30T09:47:58.015Z,34.70
2023-11-30T09:50:25.391Z,25.02
2023-11-30T09:52:54.366Z,22.20
2023-11-30T09:55:26.439Z,25.33
2023-11-30T09:57:53.913Z,19.70
2023-11-30T10:00:21.772Z,20.15
2023-11-30T10:02:53.775Z,31.45
2023-11-30T10:05:21.213Z,17.10
2023-11-30T10:07:48.646Z,18.13
2023-11-30T10:10:18.011Z,20.35
2023-11-30T10:12:45.486Z,19.33
2023-11-30T10:15:12.999Z,16.63
2023-11-30T10:17:40.530Z,20.10
2023-11-30T10:20:12.321Z,25.35
2023-11-30T10:22:40.337Z,25.10
2023-11-30T10:25:08.549Z,28.85
2023-11-30T10:27:37.755Z,28.27
2023-11-30T10:30:06.155Z,19.95
2023-11-30T10:32:34.306Z,18.60
2023-11-30T10:35:04.809Z,17.48
2023-11-30T10:37:34.275Z,19.98
2023-11-30T10:40:04.249Z,19.48
2023-11-30T10:42:33.569Z,16.70
2023-11-30T10:45:04.304Z,17.42
2023-11-30T10:47:31.859Z,19.80
2023-11-30T10:50:00.670Z,19.38
2023-11-30T10:52:28.840Z,18.58
2023-11-30T10:55:08.094Z,16.95
2023-11-30T10:57:35.613Z,20.65
2023-11-30T11:00:06.701Z,22.48
2023-11-30T11:02:37.972Z,21.15
2023-11-30T11:05:09.354Z,19.92
2023-11-30T11:07:36.737Z,20.95
2023-11-30T11:10:07.139Z,19.10
2023-11-30T11:12:41.214Z,21.08
2023-11-30T11:15:15.691Z,16.38
2023-11-30T11:17:48.186Z,16.48
2023-11-30T11:20:26.003Z,15.45
2023-11-30T11:22:54.948Z,16.42
2023-11-30T11:25:22.478Z,15.65
2023-11-30T11:27:55.971Z,17.73
2023-11-30T11:30:28.216Z,15.13
2023-11-30T11:32:58.171Z,22.38
2023-11-30T11:35:29.370Z,29.88
2023-11-30T11:37:57.452Z,16.90
2023-11-30T11:40:24.850Z,17.38
2023-11-30T11:42:52.372Z,18.75
2023-11-30T11:45:19.859Z,23.88
2023-11-30T11:47:48.733Z,24.65
2023-11-30T11:50:16.189Z,19.17
2023-11-30T11:52:43.604Z,18.48
2023-11-30T11:55:12.427Z,16.95
2023-11-30T11:57:40.631Z,18.48
2023-11-30T12:00:11.285Z,20.35
2023-11-30T12:02:39.028Z,19.55
2023-11-30T12:05:09.909Z,21.27
2023-11-30T12:07:38.074Z,26.45
2023-11-30T12:10:05.721Z,22.65
2023-11-30T12:12:33.426Z,19.65
2023-11-30T12:15:00.924Z,19.88
2023-11-30T12:17:28.428Z,20.50
2023-11-30T12:19:55.889Z,16.05
2023-11-30T12:22:24.569Z,20.63
2023-11-30T12:24:52.163Z,17.95
2023-11-30T12:27:19.683Z,17.08
2023-11-30T12:29:47.097Z,17.88
2023-11-30T12:32:14.537Z,18.08
2023-11-30T12:34:41.900Z,14.60
2023-11-30T12:37:09.269Z,16.83
2023-11-30T12:39:38.003Z,19.38
2023-11-30T12:42:06.653Z,19.05
2023-11-30T12:44:34.576Z,18.92
2023-11-30T12:47:01.963Z,22.35
2023-11-30T12:49:29.338Z,20.45
2023-11-30T12:51:56.696Z,16.77
2023-11-30T12:54:24.147Z,13.98
2023-11-30T12:56:52.865Z,18.27
2023-11-30T12:59:20.227Z,15.65
2023-11-30T13:01:48.323Z,16.30
2023-11-30T13:04:15.749Z,15.13
2023-11-30T13:06:43.355Z,15.57
2023-11-30T13:09:11.224Z,16.33
2023-11-30T13:11:39.523Z,18.95
2023-11-30T13:14:08.364Z,20.33
2023-11-30T13:16:36.054Z,18.38
2023-11-30T13:19:04.363Z,20.98
2023-11-30T13:21:32.379Z,19.20
2023-11-30T13:23:59.867Z,19.00
2023-11-30T13:26:27.287Z,21.77
2023-11-30T13:28:54.740Z,22.95
2023-11-30T13:31:23.600Z,25.23
2023-11-30T13:33:51.148Z,22.10
2023-11-30T13:36:19.389Z,19.65
2023-11-30T13:38:46.805Z,20.40
2023-11-30T13:41:14.184Z,24.13
2023-11-30T13:43:41.584Z,23.77
2023-11-30T13:46:13.997Z,20.25
2023-11-30T13:48:42.929Z,21.52
2023-11-30T13:51:11.166Z,23.23
2023-11-30T13:53:39.409Z,25.75
2023-11-30T13:56:07.712Z,19.75
2023-11-30T13:58:35.143Z,20.27
2023-11-30T14:01:02.678Z,16.38
2023-11-30T14:03:30.240Z,18.55
2023-11-30T14:05:59.044Z,22.20
2023-11-30T14:08:27.621Z,17.50
2023-11-30T14:10:55.210Z,22.63
2023-11-30T14:13:22.618Z,18.85
2023-11-30T14:15:50.024Z,17.92
2023-11-30T14:18:17.546Z,25.67
2023-11-30T14:20:44.975Z,19.35
2023-11-30T14:23:13.641Z,18.33
2023-11-30T14:25:41.565Z,19.52
2023-11-30T14:28:12.593Z,20.17
2023-11-30T14:30:41.068Z,21.65
2023-11-30T14:33:11.644Z,21.95
2023-11-30T14:35:40.597Z,20.45
2023-11-30T14:38:07.934Z,19.05
2023-11-30T14:40:37.025Z,20.63
2023-11-30T14:43:06.002Z,18.98
2023-11-30T14:45:33.453Z,19.27
2023-11-30T14:48:04.265Z,18.63
2023-11-30T14:50:32.291Z,18.42
2023-11-30T14:52:59.663Z,17.23
2023-11-30T14:55:27.038Z,17.80
2023-11-30T14:57:55.822Z,17.85
2023-11-30T15:00:24.485Z,24.10
2023-11-30T15:02:52.585Z,19.42
2023-11-30T15:05:20.429Z,18.85
2023-11-30T15:07:48.073Z,19.20
2023-11-30T15:10:15.521Z,19.45
2023-11-30T15:12:43.150Z,17.58
2023-11-30T15:15:15.122Z,19.60
2023-11-30T15:17:43.971Z,18.35
2023-11-30T15:20:13.163Z,18.38
2023-11-30T15:22:40.996Z,21.52
2023-11-30T15:25:09.144Z,20.95
2023-11-30T15:27:38.323Z,19.70
2023-11-30T15:30:08.257Z,21.52
2023-11-30T15:35:04.489Z,29.40
2023-11-30T15:37:36.384Z,26.17
2023-11-30T15:40:06.519Z,22.52
2023-11-30T15:42:34.710Z,22.13
2023-11-30T15:45:02.207Z,21.73
2023-11-30T15:47:29.704Z,24.23
2023-11-30T15:49:58.134Z,32.67
2023-11-30T15:52:27.019Z,21.08
2023-11-30T15:54:54.526Z,27.10
2023-11-30T15:57:22.717Z,21.52
2023-11-30T15:59:50.363Z,24.02
2023-11-30T16:02:17.970Z,25.95
2023-11-30T16:04:47.369Z,34.90
2023-11-30T16:07:14.858Z,32.00
2023-11-30T16:09:44.928Z,31.27
2023-11-30T16:12:12.445Z,30.23
2023-11-30T16:14:41.201Z,27.08
2023-11-30T16:17:09.343Z,34.93
2023-11-30T16:19:37.449Z,28.90
2023-11-30T16:22:05.369Z,27.63
2023-11-30T16:24:32.941Z,34.45
2023-11-30T16:27:01.680Z,27.73
2023-11-30T16:29:29.079Z,32.85
2023-11-30T16:31:56.669Z,36.95
2023-11-30T16:34:25.163Z,31.67
2023-11-30T16:36:52.671Z,31.60
2023-11-30T16:39:23.876Z,31.02
2023-11-30T16:41:52.154Z,27.30
2023-11-30T16:44:21.114Z,22.67
2023-11-30T16:46:48.598Z,22.58
2023-11-30T16:49:16.064Z,25.00
2023-11-30T16:51:48.861Z,22.05
2023-11-30T16:54:19.963Z,31.83
2023-11-30T16:56:47.442Z,32.00
2023-11-30T16:59:16.297Z,35.58
2023-11-30T17:04:13.869Z,43.42
2023-11-30T17:06:41.358Z,47.47
2023-11-30T17:09:12.194Z,44.40
2023-11-30T17:11:39.610Z,48.53
2023-11-30T17:14:07.005Z,52.20
2023-11-30T17:16:36.699Z,49.15
2023-11-30T17:19:04.124Z,45.00
2023-11-30T17:21:32.891Z,41.08
2023-11-30T17:24:00.449Z,32.42
2023-11-30T17:26:27.856Z,28.08
2023-11-30T17:28:55.309Z,35.30
2023-11-30T17:31:22.748Z,31.42
2023-11-30T17:33:50.555Z,31.70
2023-11-30T17:36:18.590Z,32.72
2023-11-30T17:38:47.414Z,36.95
2023-11-30T17:41:14.883Z,34.42
2023-11-30T17:43:42.315Z,31.83
2023-11-30T17:46:09.995Z,36.70
2023-11-30T17:48:37.510Z,37.47
2023-11-30T17:51:08.831Z,35.38
2023-11-30T17:53:36.639Z,46.20
2023-11-30T17:56:05.823Z,40.03
2023-11-30T17:58:33.380Z,38.28
2023-11-30T18:01:00.850Z,35.25
2023-11-30T18:03:31.636Z,37.60
2023-11-30T18:06:01.957Z,35.55
2023-11-30T18:08:29.361Z,38.65
2023-11-30T18:10:58.694Z,34.00
2023-11-30T18:13:27.414Z,32.17
2023-11-30T18:15:55.983Z,31.08
2023-11-30T18:18:23.756Z,42.30
2023-11-30T18:20:52.859Z,45.08
2023-11-30T18:23:20.260Z,40.63
2023-11-30T18:25:47.637Z,45.47
2023-11-30T18:28:17.320Z,42.03
2023-11-30T18:30:46.650Z,43.13
2023-11-30T18:33:16.568Z,35.72
2023-11-30T18:35:46.530Z,37.50
2023-11-30T18:38:14.747Z,37.38
2023-11-30T18:40:47.548Z,32.85
2023-11-30T18:43:17.180Z,34.63
2023-11-30T18:45:48.061Z,37.95
2023-11-30T18:48:15.500Z,43.03
2023-11-30T18:50:42.905Z,57.08
2023-11-30T18:53:10.270Z,71.28
2023-11-30T18:55:37.715Z,188.65
2023-11-30T18:58:05.167Z,101.00
2023-11-30T19:00:32.639Z,58.08
2023-11-30T19:03:03.823Z,50.08
2023-11-30T19:05:34.134Z,41.40
2023-11-30T19:08:01.551Z,41.67
2023-11-30T19:10:28.914Z,48.40
2023-11-30T19:12:56.362Z,50.30
2023-11-30T19:15:23.964Z,42.85
2023-11-30T19:17:51.526Z,45.35
2023-11-30T19:20:20.479Z,41.72
2023-11-30T19:22:50.490Z,43.80
2023-11-30T19:25:20.225Z,45.03
2023-11-30T19:27:47.755Z,47.15
2023-11-30T19:30:15.210Z,41.35
2023-11-30T19:32:42.671Z,35.97
2023-11-30T19:35:10.342Z,37.17
2023-11-30T19:37:39.082Z,38.67
2023-11-30T19:40:07.051Z,37.38
2023-11-30T19:42:36.454Z,35.08
2023-11-30T19:45:04.054Z,38.13
2023-11-30T19:47:31.534Z,38.47
2023-11-30T19:49:59.759Z,38.33
2023-11-30T19:52:27.716Z,39.90
2023-11-30T19:54:56.606Z,38.63
2023-11-30T19:57:25.808Z,45.57
2023-11-30T19:59:56.413Z,43.00
2023-11-30T20:02:23.909Z,43.60
2023-11-30T20:04:51.350Z,38.78
2023-11-30T20:07:24.193Z,46.83
2023-11-30T20:09:51.601Z,48.30
2023-11-30T20:12:27.765Z,47.05
2023-11-30T20:14:55.235Z,47.30
2023-11-30T20:17:22.624Z,39.63
2023-11-30T20:19:52.943Z,43.42
2023-11-30T20:22:23.491Z,41.10
2023-11-30T20:24:50.926Z,38.22
2023-11-30T20:27:23.511Z,44.70
2023-11-30T20:29:56.658Z,42.20
2023-11-30T20:32:25.803Z,40.83
2023-11-30T20:34:55.223Z,39.75
2023-11-30T20:37:25.059Z,36.60
2023-11-30T20:42:21.129Z,38.60
2023-11-30T20:44:54.875Z,40.40
2023-11-30T20:47:23.020Z,42.20
2023-11-30T20:49:50.440Z,43.28
2023-11-30T20:52:18.249Z,40.45
2023-11-30T20:54:45.649Z,44.85
2023-11-30T20:57:13.473Z,40.20
2023-11-30T20:59:42.803Z,44.78
2023-11-30T21:02:11.022Z,66.57
2023-11-30T21:04:38.805Z,62.92
2023-11-30T21:12:29.406Z,50.00
2023-11-30T21:14:58.170Z,47.58
2023-11-30T21:17:25.617Z,39.35
2023-11-30T21:22:35.038Z,45.22
2023-11-30T21:25:05.701Z,50.72
2023-11-30T21:27:35.495Z,41.50
2023-11-30T21:32:31.540Z,40.45
2023-11-30T21:35:00.643Z,48.60
2023-11-30T21:37:28.068Z,47.22
2023-11-30T21:39:55.597Z,44.00
2023-11-30T21:42:25.442Z,46.17
2023-11-30T21:47:20.322Z,41.05
2023-11-30T21:52:37.760Z,41.55
2023-11-30T21:55:05.464Z,43.22
2023-11-30T21:57:32.886Z,32.55
2023-11-30T22:00:00.336Z,32.25
2023-11-30T22:02:28.157Z,36.80
2023-11-30T22:04:55.828Z,36.58
2023-11-30T22:07:23.363Z,32.97
2023-11-30T22:09:52.127Z,27.02
2023-11-30T22:12:19.500Z,29.08
2023-11-30T22:14:46.882Z,28.08
2023-11-30T22:17:14.326Z,27.73
2023-11-30T22:19:41.761Z,27.35
2023-11-30T22:22:09.149Z,31.30
2023-11-30T22:24:36.631Z,32.13
2023-11-30T22:27:05.743Z,31.42
2023-11-30T22:29:33.087Z,29.48
2023-11-30T22:32:00.491Z,30.63
2023-11-30T22:34:27.946Z,30.23
2023-11-30T22:36:55.615Z,31.23
2023-11-30T22:39:23.011Z,30.75
2023-11-30T22:41:50.898Z,32.00
2023-11-30T22:44:20.046Z,33.55
2023-11-30T22:46:48.018Z,26.50
2023-11-30T22:49:17.210Z,32.65
2023-11-30T22:51:45.027Z,27.77
2023-11-30T22:54:12.484Z,33.08
2023-11-30T22:56:39.952Z,35.22
2023-11-30T22:59:08.166Z,39.47
2023-11-30T23:01:37.145Z,36.70
2023-11-30T23:04:04.880Z,33.08
2023-11-30T23:06:32.649Z,32.40
2023-11-30T23:09:00.092Z,38.63
2023-11-30T23:11:27.478Z,35.63
2023-11-30T23:13:55.462Z,37.58
2023-11-30T23:16:23.282Z,38.53
2023-11-30T23:18:52.115Z,37.05
2023-11-30T23:21:19.543Z,39.47
2023-11-30T23:23:46.974Z,35.50
2023-11-30T23:26:14.364Z,40.45
2023-11-30T23:28:41.723Z,38.45
2023-11-30T23:31:09.334Z,36.95
2023-11-30T23:33:36.801Z,37.58
2023-11-30T23:36:06.235Z,33.30
2023-11-30T23:38:33.593Z,41.00
2023-11-30T23:41:01.228Z,43.25
2023-11-30T23:43:28.667Z,41.95
2023-11-30T23:45:56.121Z,40.60
2023-11-30T23:48:23.537Z,41.65
2023-11-30T23:50:51.317Z,43.47
2023-11-30T23:53:20.035Z,47.45
2023-11-30T23:55:47.432Z,56.08
2023-11-30T23:58:14.810Z,49.30
